Time;durP1;ratioP1;P1;durP2;ratioP2;P2;SDS_P1;SDS_P2;PMS_P1;PMS_P2;Temp;Humidity;BMP_temperature;BMP_pressure;BME280_temperature;BME280_humidity;BME280_pressure;Samples;Min_cycle;Max_cycle;Signal;HPM_P1;HPM_P2
2023/10/05 00:01:27;;;;;;;2.05;1.95;;;14.30;99.90;;;;;;5088989;28;20082;-92
2023/10/05 00:03:53;;;;;;;2.15;2.05;;;14.40;99.90;;;;;;5070328;28;20047;-91
2023/10/05 00:06:24;;;;;;;2.08;1.98;;;14.30;99.90;;;;;;5084490;28;22879;-85
2023/10/05 00:08:55;;;;;;;1.98;1.88;;;14.30;99.90;;;;;;5083414;28;20083;-88
2023/10/05 00:11:36;;;;;;;2.10;2.00;;;14.30;99.90;;;;;;5081878;28;20055;-87
2023/10/05 00:14:07;;;;;;;2.20;2.10;;;14.30;99.90;;;;;;5090080;28;20096;-91
2023/10/05 00:16:36;;;;;;;2.05;1.95;;;14.30;99.90;;;;;;5086413;28;20067;-86
2023/10/05 00:19:13;;;;;;;2.10;2.00;;;14.20;99.90;;;;;;5086938;27;20409;-85
2023/10/05 00:22:01;;;;;;;2.17;2.08;;;14.20;99.90;;;;;;5068710;28;20105;-93
2023/10/05 00:24:34;;;;;;;2.13;2.03;;;14.20;99.90;;;;;;5087254;28;20043;-93
2023/10/05 00:27:00;;;;;;;2.40;2.30;;;14.20;99.90;;;;;;5070544;28;20061;-88
2023/10/05 00:29:35;;;;;;;2.20;2.10;;;14.20;99.90;;;;;;5066421;28;20036;-87
2023/10/05 00:32:01;;;;;;;2.10;2.00;;;14.30;99.90;;;;;;5070580;28;20647;-85
2023/10/05 00:34:30;;;;;;;2.10;2.00;;;14.20;99.90;;;;;;5087559;28;20082;-85
2023/10/05 00:36:58;;;;;;;2.20;2.10;;;14.30;99.90;;;;;;5082553;28;20051;-85
2023/10/05 00:39:25;;;;;;;2.08;1.98;;;14.20;99.90;;;;;;5084055;28;20462;-87
2023/10/05 00:42:10;;;;;;;2.10;2.00;;;14.10;99.90;;;;;;5067560;28;20049;-94
2023/10/05 00:44:39;;;;;;;2.20;2.10;;;14.10;99.90;;;;;;5070489;27;20129;-91
2023/10/05 00:47:06;;;;;;;2.10;2.00;;;14.20;99.90;;;;;;5085775;28;20610;-90
2023/10/05 00:49:59;;;;;;;2.20;2.10;;;14.20;99.90;;;;;;5081023;28;20052;-88
2023/10/05 00:52:33;;;;;;;2.30;2.20;;;14.10;99.90;;;;;;5091408;28;20063;-93
2023/10/05 00:55:10;;;;;;;2.20;2.10;;;14.20;99.90;;;;;;5073375;28;20069;-90
2023/10/05 00:57:36;;;;;;;;;;;14.20;99.90;;;;;;5074314;28;20468;-90
2023/10/05 01:02:32;;;;;;;2.20;2.10;;;14.30;99.90;;;;;;5089542;28;20503;-89
2023/10/05 01:05:09;;;;;;;2.22;2.13;;;14.30;99.90;;;;;;5088832;28;20782;-87
2023/10/05 01:07:56;;;;;;;2.17;2.08;;;14.30;99.90;;;;;;5086679;28;20032;-92
2023/10/05 01:10:28;;;;;;;2.28;2.17;;;14.30;99.90;;;;;;5084282;28;20035;-88
2023/10/05 01:12:54;;;;;;;2.17;2.08;;;14.20;99.90;;;;;;5085858;28;20504;-87
2023/10/05 01:15:22;;;;;;;2.20;2.10;;;14.30;99.90;;;;;;5084845;28;20055;-85
2023/10/05 01:17:52;;;;;;;2.25;2.15;;;14.30;99.90;;;;;;5082683;28;20060;-86
2023/10/05 01:22:47;;;;;;;2.17;2.08;;;14.30;99.90;;;;;;5084183;28;20047;-89
2023/10/05 01:25:16;;;;;;;2.22;2.13;;;14.30;99.90;;;;;;5070283;28;20489;-87
2023/10/05 01:27:48;;;;;;;2.17;2.08;;;14.30;99.90;;;;;;5069119;28;20097;-88
2023/10/05 01:30:15;;;;;;;2.20;2.10;;;14.40;99.90;;;;;;5082956;28;20108;-86
2023/10/05 01:32:41;;;;;;;2.30;2.20;;;14.30;99.90;;;;;;5085248;28;20039;-85
2023/10/05 01:35:08;;;;;;;2.30;2.20;;;14.40;99.90;;;;;;5067992;28;20081;-85
2023/10/05 01:37:37;;;;;;;2.05;1.95;;;14.30;99.90;;;;;;5088627;28;20778;-86
2023/10/05 01:42:47;;;;;;;2.25;2.15;;;14.40;99.90;;;;;;5084118;28;20101;-87
2023/10/05 01:45:16;;;;;;;1.95;1.85;;;14.50;99.90;;;;;;5085175;28;20517;-90
2023/10/05 01:47:46;;;;;;;2.00;1.90;;;14.50;99.90;;;;;;5087235;28;20127;-90
2023/10/05 01:50:26;;;;;;;1.95;1.85;;;14.50;99.90;;;;;;5084680;28;20057;-94
2023/10/05 01:53:08;;;;;;;2.17;2.08;;;14.50;99.90;;;;;;5085855;28;20047;-92
2023/10/05 01:55:35;;;;;;;2.05;1.95;;;14.50;99.90;;;;;;5088841;28;20043;-94
2023/10/05 01:58:05;;;;;;;2.15;2.05;;;14.50;99.90;;;;;;5071011;28;20445;-94
2023/10/05 02:00:32;;;;;;;2.17;2.08;;;14.40;99.90;;;;;;5070580;28;20642;-89
2023/10/05 02:02:58;;;;;;;2.08;1.98;;;14.30;99.90;;;;;;5071839;28;20055;-96
2023/10/05 02:05:26;;;;;;;2.08;1.98;;;14.30;99.90;;;;;;5071098;28;20039;-87
2023/10/05 02:07:52;;;;;;;2.05;1.95;;;14.30;99.90;;;;;;5072089;28;20043;-88
2023/10/05 02:10:20;;;;;;;2.20;2.10;;;14.20;99.90;;;;;;5086900;28;20092;-90
2023/10/05 02:13:12;;;;;;;2.03;1.92;;;14.30;99.90;;;;;;5085405;28;20052;-87
2023/10/05 02:15:41;;;;;;;2.22;2.13;;;14.20;99.90;;;;;;5085926;28;20047;-87
2023/10/05 02:18:30;;;;;;;2.25;2.15;;;14.30;99.90;;;;;;5086258;28;20393;-89
2023/10/05 02:21:05;;;;;;;2.20;2.10;;;14.30;99.90;;;;;;5088225;28;20050;-87
2023/10/05 02:23:37;;;;;;;2.13;2.03;;;14.30;99.90;;;;;;5085830;28;20503;-86
2023/10/05 02:26:24;;;;;;;2.20;2.10;;;14.20;99.90;;;;;;5065463;28;20134;-92
2023/10/05 02:28:51;;;;;;;2.40;2.30;;;14.20;99.90;;;;;;5082045;28;20100;-87
2023/10/05 02:31:20;;;;;;;2.17;2.08;;;14.10;99.90;;;;;;5066069;28;20043;-85
2023/10/05 02:33:45;;;;;;;2.17;2.08;;;14.20;99.90;;;;;;5083915;28;20119;-86
2023/10/05 02:36:13;;;;;;;2.25;2.15;;;14.10;99.90;;;;;;5085175;28;20560;-85
2023/10/05 02:38:48;;;;;;;2.17;2.08;;;14.10;99.90;;;;;;5086221;28;20055;-93
2023/10/05 02:41:23;;;;;;;2.28;2.17;;;14.20;99.90;;;;;;5070982;28;20040;-86
2023/10/05 02:43:52;;;;;;;2.33;2.22;;;14.20;99.90;;;;;;5082670;28;20047;-86
2023/10/05 02:46:20;;;;;;;2.25;2.15;;;14.10;99.90;;;;;;5083762;28;20051;-86
2023/10/05 02:48:46;;;;;;;2.25;2.15;;;14.10;99.90;;;;;;5085979;28;20047;-86
2023/10/05 02:51:13;;;;;;;2.30;2.20;;;14.00;99.90;;;;;;5067608;28;20043;-88
2023/10/05 02:53:43;;;;;;;2.40;2.30;;;14.00;99.90;;;;;;5084245;28;20051;-88
2023/10/05 02:56:22;;;;;;;2.38;2.28;;;14.10;99.90;;;;;;5083945;28;20063;-87
2023/10/05 02:58:54;;;;;;;2.28;2.17;;;14.00;99.90;;;;;;5066959;28;20155;-88
2023/10/05 03:01:21;;;;;;;2.30;2.20;;;14.10;99.90;;;;;;5084739;28;20116;-90
2023/10/05 03:03:47;;;;;;;2.38;2.28;;;14.20;99.90;;;;;;5065670;28;20080;-86
2023/10/05 03:06:15;;;;;;;2.25;2.15;;;14.20;99.90;;;;;;5084398;28;20047;-89
2023/10/05 03:08:42;;;;;;;2.35;2.25;;;14.10;99.90;;;;;;5081412;28;20127;-86
2023/10/05 03:11:08;;;;;;;2.28;2.17;;;14.20;99.90;;;;;;5088270;28;20059;-88
2023/10/05 03:13:41;;;;;;;2.22;2.13;;;14.10;99.90;;;;;;5067436;28;20043;-86
2023/10/05 03:16:10;;;;;;;2.20;2.10;;;14.10;99.90;;;;;;5084125;28;20254;-91
2023/10/05 03:18:40;;;;;;;2.17;2.08;;;14.10;99.90;;;;;;5084734;28;20142;-87
2023/10/05 03:21:13;;;;;;;2.22;2.13;;;14.20;99.90;;;;;;5080000;28;20043;-87
2023/10/05 03:23:41;;;;;;;2.13;2.03;;;14.20;99.90;;;;;;5082187;28;20054;-86
2023/10/05 03:26:07;;;;;;;2.08;1.98;;;14.10;99.90;;;;;;5083615;28;20043;-86
2023/10/05 03:28:35;;;;;;;2.20;2.10;;;14.20;99.90;;;;;;5079254;28;20040;-86
2023/10/05 03:31:06;;;;;;;2.10;2.00;;;14.30;99.90;;;;;;5078560;28;20051;-88
2023/10/05 03:33:34;;;;;;;2.00;1.90;;;14.20;99.90;;;;;;5083919;28;20044;-86
2023/10/05 03:36:06;;;;;;;1.95;1.85;;;14.30;99.90;;;;;;5083089;28;20085;-88
2023/10/05 03:38:35;;;;;;;1.98;1.88;;;14.30;99.90;;;;;;5084415;28;20051;-87
2023/10/05 03:41:04;;;;;;;1.90;1.80;;;14.40;99.90;;;;;;5081221;28;20051;-94
2023/10/05 03:43:33;;;;;;;2.00;1.90;;;14.50;99.90;;;;;;5067610;28;20510;-88
2023/10/05 03:46:06;;;;;;;1.92;1.83;;;14.40;99.90;;;;;;5079010;28;20044;-87
2023/10/05 03:48:38;;;;;;;2.00;1.90;;;14.30;99.90;;;;;;5066175;28;20044;-84
2023/10/05 03:51:08;;;;;;;1.90;1.80;;;14.40;99.90;;;;;;5079534;28;20039;-87
2023/10/05 03:53:34;;;;;;;1.85;1.75;;;14.30;99.90;;;;;;5084438;28;20053;-92
2023/10/05 03:55:59;;;;;;;1.85;1.75;;;14.50;99.90;;;;;;5083992;28;20093;-87
2023/10/05 03:58:32;;;;;;;1.95;1.85;;;14.40;99.90;;;;;;5083935;28;20039;-92
2023/10/05 04:00:58;;;;;;;2.17;2.08;;;14.40;99.90;;;;;;5065280;28;20050;-87
2023/10/05 04:03:25;;;;;;;1.95;1.85;;;14.40;99.90;;;;;;5082493;28;20040;-90
2023/10/05 04:05:51;;;;;;;2.03;1.92;;;14.50;99.90;;;;;;5069774;28;20127;-88
2023/10/05 04:08:17;;;;;;;1.95;1.85;;;14.40;99.90;;;;;;5068805;28;20083;-87
2023/10/05 04:10:52;;;;;;;1.88;1.77;;;14.30;99.90;;;;;;5085925;28;20102;-86
2023/10/05 04:13:20;;;;;;;1.92;1.83;;;14.50;99.90;;;;;;5080243;28;20063;-87
2023/10/05 04:15:46;;;;;;;1.92;1.83;;;14.40;99.90;;;;;;5077423;28;20048;-87
2023/10/05 04:18:14;;;;;;;2.05;1.95;;;14.60;99.90;;;;;;5077566;28;20459;-90
2023/10/05 04:20:44;;;;;;;1.98;1.88;;;14.40;99.90;;;;;;5081569;28;20055;-89
2023/10/05 04:23:15;;;;;;;2.05;1.95;;;14.40;99.90;;;;;;5081727;28;20048;-89
2023/10/05 04:25:40;;;;;;;2.00;1.90;;;14.40;99.90;;;;;;5070650;28;20044;-87
2023/10/05 04:28:06;;;;;;;2.05;1.95;;;14.60;99.90;;;;;;5086013;28;20043;-87
2023/10/05 04:30:35;;;;;;;2.03;1.92;;;14.40;99.90;;;;;;5086758;28;20147;-86
2023/10/05 04:33:03;;;;;;;1.90;1.80;;;14.50;99.90;;;;;;5084514;28;20050;-86
2023/10/05 04:35:32;;;;;;;2.00;1.90;;;14.50;99.90;;;;;;5087540;28;20093;-91
2023/10/05 04:38:01;;;;;;;2.22;2.13;;;14.50;99.90;;;;;;5065832;28;20050;-85
2023/10/05 04:40:26;;;;;;;1.98;1.88;;;14.50;99.90;;;;;;5084518;28;20043;-89
2023/10/05 04:42:52;;;;;;;2.00;1.90;;;14.30;99.90;;;;;;5073347;28;20050;-86
2023/10/05 04:45:20;;;;;;;2.00;1.90;;;14.50;99.90;;;;;;5080379;28;20047;-88
2023/10/05 04:47:48;;;;;;;2.15;2.05;;;14.30;99.90;;;;;;5083235;28;20190;-88
2023/10/05 04:50:15;;;;;;;2.17;2.08;;;14.30;99.90;;;;;;5068958;28;20044;-89
2023/10/05 04:52:45;;;;;;;2.13;2.03;;;14.20;99.90;;;;;;5090030;27;20468;-93
2023/10/05 04:55:32;;;;;;;2.38;2.28;;;14.40;99.90;;;;;;5069895;28;20040;-89
2023/10/05 04:58:53;;;;;;;2.47;2.38;;;14.20;99.90;;;;;;5087747;28;20512;-88
2023/10/05 05:01:15;;;;;;;2.22;2.13;;;14.40;99.90;;;;;;5080121;28;20047;-86
2023/10/05 05:03:55;;;;;;;2.47;2.38;;;14.30;99.90;;;;;;5085327;28;20401;-85
2023/10/05 05:06:22;;;;;;;2.40;2.30;;;14.20;99.90;;;;;;5077852;28;20060;-86
2023/10/05 05:08:47;;;;;;;2.13;2.03;;;14.20;99.90;;;;;;5083502;28;20055;-86
2023/10/05 05:11:19;;;;;;;2.25;2.15;;;14.10;99.90;;;;;;5083415;28;20374;-88
2023/10/05 05:13:51;;;;;;;2.28;2.17;;;14.30;99.90;;;;;;5082761;28;20043;-87
2023/10/05 05:16:16;;;;;;;2.30;2.20;;;14.20;99.90;;;;;;5065568;28;20046;-90
2023/10/05 05:18:43;;;;;;;2.10;2.00;;;14.10;99.90;;;;;;5088308;28;20118;-89
2023/10/05 05:21:10;;;;;;;2.45;2.35;;;14.00;99.90;;;;;;5073972;28;20054;-87
2023/10/05 05:23:35;;;;;;;2.42;2.33;;;14.00;99.90;;;;;;5086825;28;20523;-87
2023/10/05 05:26:03;;;;;;;2.55;2.45;;;14.10;99.90;;;;;;5084978;28;20063;-86
2023/10/05 05:28:34;;;;;;;2.63;2.50;;;14.00;99.90;;;;;;5086540;28;20079;-87
2023/10/05 05:31:06;;;;;;;2.55;2.45;;;14.00;99.90;;;;;;5086975;28;20055;-87
2023/10/05 05:33:33;;;;;;;2.53;2.42;;;14.00;99.90;;;;;;5088269;28;20071;-88
2023/10/05 05:36:13;;;;;;;2.28;2.17;;;13.90;99.90;;;;;;5086586;28;20044;-96
2023/10/05 05:38:39;;;;;;;2.70;2.55;;;13.90;99.90;;;;;;5088142;28;20545;-88
2023/10/05 05:41:16;;;;;;;2.55;2.42;;;13.80;99.90;;;;;;5083563;28;20054;-86
2023/10/05 05:43:42;;;;;;;2.35;2.25;;;13.80;99.90;;;;;;5066948;28;20039;-92
2023/10/05 05:46:14;;;;;;;2.45;2.35;;;14.00;99.90;;;;;;5066858;27;20048;-94
2023/10/05 05:48:42;;;;;;;2.33;2.22;;;14.00;99.90;;;;;;5073958;27;20044;-89
2023/10/05 05:51:15;;;;;;;2.22;2.13;;;13.80;99.90;;;;;;5074880;28;20051;-88
2023/10/05 05:53:43;;;;;;;2.15;2.05;;;13.90;99.90;;;;;;5089002;28;20100;-87
2023/10/05 05:56:09;;;;;;;2.15;2.05;;;14.00;99.90;;;;;;5068406;28;20070;-91
2023/10/05 05:58:35;;;;;;;2.00;1.90;;;14.00;99.90;;;;;;5072936;28;20485;-86
2023/10/05 06:01:00;;;;;;;2.03;1.92;;;13.90;99.90;;;;;;5084345;28;20055;-84
2023/10/05 06:03:27;;;;;;;2.00;1.90;;;14.00;99.90;;;;;;5087565;28;20043;-90
2023/10/05 06:05:53;;;;;;;2.03;1.92;;;14.10;99.90;;;;;;5071686;28;20040;-88
2023/10/05 06:08:19;;;;;;;2.00;1.90;;;14.20;99.90;;;;;;5085700;28;20937;-84
2023/10/05 06:10:51;;;;;;;2.00;1.90;;;14.00;99.90;;;;;;5085903;28;20126;-93
2023/10/05 06:13:19;;;;;;;1.90;1.80;;;14.20;99.90;;;;;;5067641;28;20046;-87
2023/10/05 06:15:45;;;;;;;2.05;1.95;;;14.30;99.90;;;;;;5088594;28;20071;-89
2023/10/05 06:18:12;;;;;;;2.05;1.95;;;14.30;99.90;;;;;;5086775;28;20126;-87
2023/10/05 06:20:38;;;;;;;2.00;1.90;;;14.30;99.90;;;;;;5085602;28;20055;-90
2023/10/05 06:23:05;;;;;;;1.85;1.75;;;14.30;99.90;;;;;;5086885;28;20035;-86
2023/10/05 06:25:31;;;;;;;1.92;1.83;;;14.40;99.90;;;;;;5085812;28;20122;-87
2023/10/05 06:28:00;;;;;;;1.77;1.67;;;14.60;99.90;;;;;;5069919;28;20096;-89
2023/10/05 06:30:26;;;;;;;2.10;2.00;;;14.40;99.90;;;;;;5072758;28;20039;-88
2023/10/05 06:32:54;;;;;;;2.00;1.90;;;14.50;99.90;;;;;;5089375;28;20124;-92
2023/10/05 06:35:20;;;;;;;2.10;2.00;;;14.50;99.90;;;;;;5071703;28;20101;-92
2023/10/05 06:37:46;;;;;;;1.88;1.77;;;14.60;99.90;;;;;;5089840;28;20043;-88
2023/10/05 06:40:21;;;;;;;2.00;1.90;;;14.50;99.90;;;;;;5088435;28;20061;-90
2023/10/05 06:42:49;;;;;;;2.20;2.10;;;14.60;99.90;;;;;;5087778;28;20047;-83
2023/10/05 06:45:19;;;;;;;2.13;2.03;;;14.60;99.90;;;;;;5089031;28;20126;-94
2023/10/05 06:47:45;;;;;;;1.85;1.75;;;14.70;99.90;;;;;;5070638;28;20135;-85
2023/10/05 06:50:11;;;;;;;1.85;1.75;;;14.60;99.90;;;;;;5068929;28;20048;-89
2023/10/05 06:52:46;;;;;;;2.08;1.98;;;14.70;99.90;;;;;;5067544;28;20983;-87
2023/10/05 06:55:14;;;;;;;1.90;1.80;;;14.80;99.90;;;;;;5054825;28;20040;-89
2023/10/05 06:57:43;;;;;;;1.80;1.70;;;14.90;99.90;;;;;;5085736;28;20115;-91
2023/10/05 07:00:18;;;;;;;1.95;1.85;;;14.90;99.90;;;;;;5086604;28;20497;-81
2023/10/05 07:02:44;;;;;;;1.55;1.45;;;14.80;99.90;;;;;;5102190;28;20560;-89
2023/10/05 07:05:11;;;;;;;1.63;1.52;;;14.80;99.90;;;;;;5058411;28;20130;-90
2023/10/05 07:07:37;;;;;;;1.77;1.67;;;15.00;99.90;;;;;;5065662;28;20043;-87
2023/10/05 07:10:05;;;;;;;1.90;1.80;;;15.00;99.90;;;;;;5084599;28;20093;-86
2023/10/05 07:12:46;;;;;;;1.98;1.88;;;15.00;99.90;;;;;;5067741;28;20040;-88
2023/10/05 07:15:21;;;;;;;1.45;1.40;;;15.00;99.90;;;;;;5087693;28;20047;-85
2023/10/05 07:17:52;;;;;;;2.00;1.90;;;15.10;99.90;;;;;;5087414;28;20134;-93
2023/10/05 07:20:18;;;;;;;1.90;1.80;;;15.00;99.90;;;;;;5071657;28;20119;-92
2023/10/05 07:22:48;;;;;;;1.98;1.88;;;15.10;99.90;;;;;;5089359;28;20498;-93
2023/10/05 07:25:14;;;;;;;1.90;1.80;;;15.10;99.90;;;;;;5072262;28;20421;-90
2023/10/05 07:27:44;;;;;;;1.92;1.83;;;15.10;99.90;;;;;;5068469;28;20048;-86
2023/10/05 07:30:10;;;;;;;1.92;1.83;;;15.20;99.90;;;;;;5085664;28;20135;-90
2023/10/05 07:32:36;;;;;;;2.00;1.90;;;15.20;99.90;;;;;;5058529;28;20046;-91
2023/10/05 07:35:09;;;;;;;1.90;1.80;;;15.30;99.90;;;;;;5090179;28;20068;-91
2023/10/05 07:37:35;;;;;;;2.00;1.90;;;15.30;99.90;;;;;;5086323;28;20513;-85
2023/10/05 07:40:04;;;;;;;1.98;1.88;;;15.30;99.90;;;;;;5083492;28;20282;-87
2023/10/05 07:42:30;;;;;;;1.95;1.85;;;15.50;99.90;;;;;;5080630;28;20048;-83
2023/10/05 07:44:57;;;;;;;1.88;1.77;;;15.50;99.90;;;;;;5083779;28;20050;-91
2023/10/05 07:47:24;;;;;;;1.83;1.73;;;15.40;99.90;;;;;;5087060;28;20043;-85
2023/10/05 07:49:53;;;;;;;1.88;1.77;;;15.50;99.90;;;;;;5087682;28;20055;-89
2023/10/05 07:52:19;;;;;;;1.77;1.67;;;15.40;99.90;;;;;;5072407;28;20138;-86
2023/10/05 07:54:45;;;;;;;1.85;1.75;;;15.40;99.90;;;;;;5083330;28;20047;-85
2023/10/05 07:57:11;;;;;;;1.80;1.70;;;15.50;99.90;;;;;;5086802;28;20512;-86
2023/10/05 07:59:40;;;;;;;1.75;1.65;;;15.50;99.90;;;;;;5087385;28;20114;-82
2023/10/05 08:02:07;;;;;;;1.88;1.77;;;15.60;99.90;;;;;;5068591;28;20044;-86
2023/10/05 08:04:34;;;;;;;2.15;2.05;;;15.80;99.90;;;;;;5085426;28;20036;-94
2023/10/05 08:07:00;;;;;;;2.20;2.10;;;15.90;99.90;;;;;;5071041;28;20044;-84
2023/10/05 08:09:27;;;;;;;2.03;1.92;;;16.00;99.90;;;;;;5087299;28;20446;-91
2023/10/05 08:11:56;;;;;;;1.63;1.52;;;16.00;99.90;;;;;;5073051;28;20043;-86
2023/10/05 08:14:48;;;;;;;1.92;1.83;;;16.10;99.90;;;;;;5089061;28;20538;-89
2023/10/05 08:17:17;;;;;;;1.92;1.83;;;16.20;99.90;;;;;;5081310;28;20052;-92
2023/10/05 08:19:43;;;;;;;1.83;1.73;;;16.20;99.90;;;;;;5072369;28;20126;-86
2023/10/05 08:22:09;;;;;;;1.88;1.77;;;16.20;99.90;;;;;;5092021;28;20127;-85
2023/10/05 08:24:35;;;;;;;1.85;1.75;;;16.40;99.90;;;;;;5088679;28;20098;-88
2023/10/05 08:27:00;;;;;;;1.70;1.60;;;16.40;99.90;;;;;;5083091;28;20075;-87
2023/10/05 08:29:29;;;;;;;1.67;1.58;;;16.40;99.90;;;;;;5091611;28;20096;-95
2023/10/05 08:31:55;;;;;;;1.67;1.58;;;16.50;99.90;;;;;;5076768;28;20150;-84
2023/10/05 08:34:21;;;;;;;1.73;1.63;;;16.60;99.90;;;;;;5089395;28;20586;-88
2023/10/05 08:36:53;;;;;;;1.75;1.65;;;16.80;99.90;;;;;;5073753;28;20065;-88
2023/10/05 08:39:25;;;;;;;1.73;1.63;;;16.80;99.90;;;;;;5071948;28;20742;-87
2023/10/05 08:41:55;;;;;;;1.67;1.58;;;16.90;99.90;;;;;;5092011;28;20043;-86
2023/10/05 08:44:28;;;;;;;1.55;1.45;;;17.00;99.90;;;;;;5070362;28;20048;-94
2023/10/05 08:46:55;;;;;;;1.50;1.42;;;17.10;99.90;;;;;;5091999;28;20050;-87
2023/10/05 08:49:23;;;;;;;1.50;1.42;;;17.20;99.90;;;;;;5088607;28;20070;-93
2023/10/05 08:51:50;;;;;;;1.40;1.35;;;17.20;99.90;;;;;;5070182;28;20071;-87
2023/10/05 08:54:21;;;;;;;1.38;1.33;;;17.30;99.90;;;;;;5088422;28;20069;-86
2023/10/05 08:56:47;;;;;;;1.50;1.40;;;17.20;99.90;;;;;;5089029;28;20044;-92
2023/10/05 08:59:14;;;;;;;1.38;1.35;;;17.20;99.90;;;;;;5085926;28;20047;-93
2023/10/05 09:01:46;;;;;;;1.23;1.23;;;17.10;99.90;;;;;;5075729;28;20519;-92
2023/10/05 09:06:55;;;;;;;1.23;1.23;;;17.10;99.90;;;;;;5102947;27;20715;-85
2023/10/05 09:09:39;;;;;;;1.45;1.38;;;16.90;99.90;;;;;;5097549;27;20047;-86
2023/10/05 09:12:46;;;;;;;1.50;1.40;;;16.90;99.90;;;;;;5108335;27;20119;-84
2023/10/05 09:15:27;;;;;;;1.33;1.33;;;17.00;99.90;;;;;;5079570;28;20070;-85
2023/10/05 09:17:58;;;;;;;1.27;1.27;;;17.10;99.90;;;;;;5084229;28;20550;-87
2023/10/05 09:20:32;;;;;;;1.25;1.25;;;17.20;99.90;;;;;;5097188;28;20043;-85
2023/10/05 09:23:09;;;;;;;1.17;1.17;;;17.40;99.90;;;;;;5114605;27;20153;-94
2023/10/05 09:25:44;;;;;;;1.15;1.15;;;17.40;99.90;;;;;;5097342;28;20433;-93
2023/10/05 09:28:28;;;;;;;1.20;1.20;;;17.40;99.90;;;;;;5100363;28;20087;-89
2023/10/05 09:31:02;;;;;;;1.25;1.25;;;17.40;99.90;;;;;;5112229;27;20145;-86
2023/10/05 09:33:40;;;;;;;1.20;1.20;;;17.40;99.90;;;;;;5097852;27;20104;-91
2023/10/05 09:36:22;;;;;;;1.20;1.20;;;17.50;99.90;;;;;;5075304;28;20035;-89
2023/10/05 09:38:57;;;;;;;1.20;1.20;;;17.60;99.90;;;;;;5089756;27;20484;-95
2023/10/05 09:41:27;;;;;;;1.17;1.17;;;17.70;99.90;;;;;;5087755;27;20050;-89
2023/10/05 09:43:58;;;;;;;1.13;1.13;;;17.70;99.90;;;;;;5110424;27;20126;-88
2023/10/05 09:46:31;;;;;;;1.20;1.20;;;17.90;99.90;;;;;;5110450;27;20043;-90
2023/10/05 09:49:02;;;;;;;1.48;1.40;;;17.90;99.90;;;;;;5095191;27;20043;-94
2023/10/05 09:51:28;;;;;;;1.23;1.23;;;18.00;99.90;;;;;;5108670;27;20039;-89
2023/10/05 09:53:59;;;;;;;1.30;1.30;;;18.10;99.90;;;;;;5077931;28;20126;-89
2023/10/05 09:56:25;;;;;;;1.25;1.25;;;18.10;99.90;;;;;;5091615;27;20055;-84
2023/10/05 09:58:53;;;;;;;1.25;1.25;;;18.30;99.90;;;;;;5109837;27;20043;-93
2023/10/05 10:01:21;;;;;;;1.27;1.27;;;18.20;99.90;;;;;;5095246;27;20043;-89
2023/10/05 10:03:52;;;;;;;1.33;1.30;;;18.10;99.90;;;;;;5096581;28;20051;-84
2023/10/05 10:06:28;;;;;;;1.55;1.45;;;18.10;99.90;;;;;;5105798;27;20127;-88
2023/10/05 10:09:09;;;;;;;1.50;1.42;;;18.00;99.90;;;;;;5087974;27;20036;-95
2023/10/05 10:11:36;;;;;;;1.60;1.50;;;18.00;99.90;;;;;;5100392;27;20051;-88
2023/10/05 10:14:08;;;;;;;1.52;1.45;;;17.90;99.90;;;;;;5076173;27;20046;-91
2023/10/05 10:16:39;;;;;;;1.65;1.55;;;17.90;99.90;;;;;;5118887;27;20039;-86
2023/10/05 10:19:08;;;;;;;1.65;1.55;;;18.30;99.90;;;;;;5100632;27;20128;-86
2023/10/05 10:22:12;;;;;;;1.58;1.48;;;18.40;99.90;;;;;;5110539;27;20517;-92
2023/10/05 10:24:30;;;;;;;1.52;1.42;;;18.50;99.90;;;;;;5112521;27;20051;-88
2023/10/05 10:27:15;;;;;;;1.40;1.30;;;18.80;99.90;;;;;;5115053;27;20050;-90
2023/10/05 10:29:42;;;;;;;1.50;1.40;;;18.80;99.90;;;;;;5106017;27;20063;-96
2023/10/05 10:32:34;;;;;;;1.55;1.45;;;18.80;99.90;;;;;;5097031;27;20046;-91
2023/10/05 10:35:26;;;;;;;1.65;1.55;;;18.80;99.90;;;;;;5100418;27;20058;-88
2023/10/05 10:38:02;;;;;;;1.60;1.50;;;18.70;99.90;;;;;;5103779;27;20039;-93
2023/10/05 10:40:48;;;;;;;1.60;1.50;;;18.70;99.90;;;;;;5067402;27;20054;-92
2023/10/05 10:43:20;;;;;;;1.60;1.50;;;18.70;99.90;;;;;;5097357;27;20127;-90
2023/10/05 10:45:47;;;;;;;1.60;1.50;;;18.50;99.90;;;;;;5104783;27;20048;-86
2023/10/05 10:48:28;;;;;;;1.45;1.40;;;18.50;99.90;;;;;;5097722;27;20607;-89
2023/10/05 10:50:59;;;;;;;1.42;1.38;;;18.50;99.90;;;;;;5098179;27;20484;-93
2023/10/05 10:53:30;;;;;;;1.40;1.35;;;18.70;99.90;;;;;;5104425;27;20047;-91
2023/10/05 10:56:18;;;;;;;1.42;1.38;;;18.70;99.90;;;;;;5086404;27;20047;-89
2023/10/05 10:59:12;;;;;;;1.10;1.10;;;18.80;99.90;;;;;;5100020;28;20046;-94
2023/10/05 11:01:53;;;;;;;1.45;1.35;;;18.80;99.90;;;;;;5090395;28;20069;-94
2023/10/05 11:04:36;;;;;;;1.55;1.45;;;19.00;99.90;;;;;;5117989;27;20503;-91
2023/10/05 11:07:07;;;;;;;1.30;1.30;;;19.30;99.90;;;;;;5095863;28;20150;-89
2023/10/05 11:09:49;;;;;;;1.10;1.10;;;19.30;99.90;;;;;;5090198;27;20047;-86
2023/10/05 11:12:21;;;;;;;1.13;1.13;;;19.00;99.90;;;;;;5114744;27;20056;-89
2023/10/05 11:14:47;;;;;;;1.20;1.20;;;19.10;99.90;;;;;;5101365;27;20043;-88
2023/10/05 11:17:35;;;;;;;1.10;1.10;;;19.30;99.90;;;;;;5105710;27;20039;-88
2023/10/05 11:20:17;;;;;;;1.50;1.40;;;19.40;99.90;;;;;;5105610;27;20050;-85
2023/10/05 11:22:43;;;;;;;1.30;1.30;;;19.80;99.90;;;;;;5089648;28;20056;-86
2023/10/05 11:25:17;;;;;;;1.45;1.38;;;20.10;99.90;;;;;;5094691;28;20068;-88
2023/10/05 11:27:56;;;;;;;1.50;1.40;;;20.30;99.90;;;;;;5093227;28;20040;-96
2023/10/05 11:31:34;;;;;;;1.30;1.30;;;20.50;99.90;;;;;;5090710;28;20036;-86
2023/10/05 11:33:53;;;;;;;1.00;1.00;;;20.40;99.90;;;;;;5091549;28;20051;-94
2023/10/05 11:36:35;;;;;;;1.30;1.27;;;20.00;99.90;;;;;;5083793;27;20070;-92
2023/10/05 11:39:02;;;;;;;1.13;1.13;;;19.80;99.90;;;;;;5088486;28;20140;-90
2023/10/05 11:41:32;;;;;;;1.00;1.00;;;20.00;99.90;;;;;;5094009;27;20114;-94
2023/10/05 11:44:01;;;;;;;1.13;1.13;;;20.10;99.90;;;;;;5082525;28;20048;-87
2023/10/05 11:46:48;;;;;;;1.10;1.10;;;20.20;99.90;;;;;;5111961;27;20047;-90
2023/10/05 11:49:13;;;;;;;1.10;1.10;;;20.50;99.90;;;;;;5116494;27;20043;-87
2023/10/05 11:51:42;;;;;;;1.10;1.10;;;20.70;99.90;;;;;;5108828;27;20047;-87
2023/10/05 11:54:09;;;;;;;1.20;1.20;;;20.80;99.90;;;;;;5103687;27;20404;-88
2023/10/05 11:56:35;;;;;;;1.20;1.20;;;21.00;99.90;;;;;;5106260;27;20051;-88
2023/10/05 11:59:05;;;;;;;1.10;1.10;;;21.00;99.90;;;;;;5092111;28;20056;-95
2023/10/05 12:01:34;;;;;;;1.50;1.40;;;20.80;99.90;;;;;;5092114;28;20044;-87
2023/10/05 12:04:04;;;;;;;1.50;1.40;;;20.40;99.90;;;;;;5098828;27;20497;-86
2023/10/05 12:06:30;;;;;;;1.30;1.30;;;20.20;99.90;;;;;;5103474;27;20130;-89
2023/10/05 12:09:27;;;;;;;1.23;1.23;;;20.30;99.90;;;;;;5081254;28;20397;-83
2023/10/05 12:12:01;;;;;;;1.60;1.50;;;20.20;99.90;;;;;;5116274;27;20404;-87
2023/10/05 12:14:27;;;;;;;1.60;1.50;;;20.20;99.90;;;;;;5108409;27;20122;-83
2023/10/05 12:16:56;;;;;;;1.42;1.38;;;20.40;99.90;;;;;;5102027;27;20075;-84
2023/10/05 12:19:28;;;;;;;1.50;1.40;;;20.60;99.90;;;;;;5096724;27;20130;-91
2023/10/05 12:22:01;;;;;;;1.30;1.30;;;20.80;99.90;;;;;;5102629;27;20392;-91
2023/10/05 12:24:28;;;;;;;1.00;1.00;;;20.80;99.90;;;;;;5104372;28;20040;-93
2023/10/05 12:27:04;;;;;;;1.10;1.10;;;20.90;99.90;;;;;;5098308;27;20289;-95
2023/10/05 12:29:29;;;;;;;1.20;1.20;;;20.90;99.90;;;;;;5119223;27;20123;-88
2023/10/05 12:32:00;;;;;;;1.30;1.30;;;20.90;99.90;;;;;;5094176;28;20043;-87
2023/10/05 12:34:36;;;;;;;1.23;1.23;;;20.70;99.90;;;;;;5097989;27;20113;-90
2023/10/05 12:37:08;;;;;;;1.17;1.17;;;20.70;99.90;;;;;;5107120;27;20047;-85
2023/10/05 12:39:33;;;;;;;1.13;1.13;;;20.80;99.90;;;;;;5109550;27;20051;-88
2023/10/05 12:42:00;;;;;;;1.17;1.17;;;20.90;99.90;;;;;;5103542;27;20245;-87
2023/10/05 12:44:27;;;;;;;1.15;1.15;;;20.90;99.90;;;;;;5095329;27;20046;-89
2023/10/05 12:46:53;;;;;;;1.23;1.23;;;20.80;99.90;;;;;;5083004;28;20048;-81
2023/10/05 12:49:20;;;;;;;1.23;1.23;;;20.80;99.90;;;;;;5092943;27;20044;-84
2023/10/05 12:51:50;;;;;;;1.35;1.33;;;21.00;99.90;;;;;;5113011;27;20050;-92
2023/10/05 12:54:28;;;;;;;1.25;1.25;;;20.90;99.90;;;;;;5101696;27;20047;-93
2023/10/05 12:56:54;;;;;;;1.63;1.52;;;20.90;99.90;;;;;;5099047;27;20030;-87
2023/10/05 12:59:20;;;;;;;1.52;1.45;;;20.80;99.90;;;;;;5112290;27;20074;-87
2023/10/05 13:01:47;;;;;;;1.27;1.25;;;20.80;99.90;;;;;;5107099;27;20051;-90
2023/10/05 13:04:20;;;;;;;1.33;1.27;;;20.70;99.90;;;;;;5097671;27;20196;-87
2023/10/05 13:06:46;;;;;;;1.42;1.38;;;20.80;99.90;;;;;;5117059;27;20031;-92
2023/10/05 13:09:13;;;;;;;1.42;1.38;;;20.60;99.90;;;;;;5089736;28;20043;-87
2023/10/05 13:11:47;;;;;;;1.52;1.45;;;20.60;99.90;;;;;;5097622;27;20137;-85
2023/10/05 13:14:14;;;;;;;1.85;1.75;;;20.30;99.90;;;;;;5098733;27;20514;-87
2023/10/05 13:16:41;;;;;;;1.85;1.75;;;20.20;99.90;;;;;;5101748;27;20043;-85
2023/10/05 13:19:10;;;;;;;1.58;1.50;;;20.20;99.90;;;;;;5088928;27;20050;-92